createdAt,value
2017-02-10T00:00:41.796Z,0
2017-02-10T00:01:53.195Z,0
2017-02-10T00:03:04.597Z,0
2017-02-10T00:04:16.210Z,0
2017-02-10T00:05:27.662Z,0
2017-02-10T00:06:39.062Z,0
2017-02-10T00:07:50.468Z,0
2017-02-10T00:09:01.876Z,0
2017-02-10T00:10:13.268Z,0
2017-02-10T00:11:24.879Z,0
2017-02-10T00:12:36.285Z,0
2017-02-10T00:13:47.680Z,0
2017-02-10T00:14:59.287Z,0
2017-02-10T00:16:10.741Z,0
2017-02-10T00:17:22.136Z,0
2017-02-10T00:18:33.527Z,0
2017-02-10T00:19:44.926Z,0
2017-02-10T00:20:56.325Z,0
2017-02-10T00:22:07.774Z,0
2017-02-10T00:23:19.178Z,0
2017-02-10T00:24:30.574Z,0
2017-02-10T00:25:41.973Z,0
2017-02-10T00:26:53.576Z,0
2017-02-10T00:28:04.975Z,0
2017-02-10T00:29:16.374Z,0
2017-02-10T00:30:27.773Z,0
2017-02-10T00:31:39.176Z,0
2017-02-10T00:32:50.620Z,0
2017-02-10T00:34:02.220Z,0
2017-02-10T00:35:13.616Z,0
2017-02-10T00:36:25.024Z,0
2017-02-10T00:37:36.426Z,0
2017-02-10T00:38:47.836Z,0
2017-02-10T00:39:59.237Z,0
2017-02-10T00:41:10.830Z,0
2017-02-10T00:42:22.226Z,0
2017-02-10T00:43:33.726Z,0
2017-02-10T00:44:45.124Z,0
2017-02-10T00:45:56.527Z,0
2017-02-10T00:47:07.924Z,0
2017-02-10T00:48:19.331Z,0
2017-02-10T00:49:30.935Z,0
2017-02-10T00:50:42.331Z,0
2017-02-10T00:51:53.733Z,0
2017-02-10T00:53:05.339Z,0
2017-02-10T00:54:16.737Z,0
2017-02-10T00:55:28.342Z,0
2017-02-10T00:56:39.743Z,0
2017-02-10T00:57:51.142Z,0
2017-02-10T00:59:02.740Z,0
2017-02-10T01:00:14.192Z,0
2017-02-10T01:01:25.599Z,0
2017-02-10T01:02:37.040Z,0
2017-02-10T01:03:48.437Z,0
2017-02-10T01:04:59.835Z,0
2017-02-10T01:06:11.232Z,0
2017-02-10T01:07:22.631Z,0
2017-02-10T01:08:34.234Z,0
2017-02-10T01:09:45.634Z,0
2017-02-10T01:10:57.087Z,0
2017-02-10T01:12:08.898Z,0
2017-02-10T01:13:20.303Z,0
2017-02-10T01:14:31.906Z,0
2017-02-10T01:15:43.303Z,0
2017-02-10T01:16:54.711Z,0
2017-02-10T01:18:06.110Z,0
2017-02-10T01:19:17.514Z,0
2017-02-10T01:20:28.917Z,0
2017-02-10T01:21:40.416Z,0
2017-02-10T01:22:51.810Z,0
2017-02-10T01:24:03.414Z,0
2017-02-10T01:25:14.821Z,0
2017-02-10T01:26:26.224Z,0
2017-02-10T01:27:37.617Z,0
2017-02-10T01:28:49.019Z,0
2017-02-10T01:30:00.432Z,0
2017-02-10T01:31:12.033Z,0
2017-02-10T01:32:23.687Z,0
2017-02-10T01:33:35.095Z,0
2017-02-10T01:34:46.487Z,0
2017-02-10T01:35:57.883Z,0
2017-02-10T01:37:09.485Z,0
2017-02-10T01:38:20.978Z,0
2017-02-10T01:39:32.368Z,0
2017-02-10T01:40:44.004Z,0
2017-02-10T01:41:55.409Z,0
2017-02-10T01:43:06.810Z,0
2017-02-10T01:44:18.209Z,0
2017-02-10T01:45:29.810Z,0
2017-02-10T01:46:41.217Z,0
2017-02-10T01:47:52.822Z,0
2017-02-10T01:49:04.269Z,0
2017-02-10T01:50:15.671Z,0
2017-02-10T01:51:27.069Z,0
2017-02-10T01:52:38.471Z,0
2017-02-10T01:53:50.083Z,0
2017-02-10T01:55:01.485Z,0
2017-02-10T01:56:12.892Z,0
2017-02-10T01:57:24.514Z,0
2017-02-10T01:58:36.319Z,0
2017-02-10T01:59:47.772Z,0
2017-02-10T02:00:59.171Z,0
2017-02-10T02:02:10.574Z,0
2017-02-10T02:03:21.972Z,0
2017-02-10T02:04:33.573Z,0
2017-02-10T02:05:45.177Z,0
2017-02-10T02:06:56.587Z,0
2017-02-10T02:08:08.193Z,0
2017-02-10T02:09:19.786Z,0
2017-02-10T02:10:31.288Z,0
2017-02-10T02:11:42.893Z,0
2017-02-10T02:12:54.295Z,0
2017-02-10T02:14:05.691Z,0
2017-02-10T02:15:17.100Z,0
2017-02-10T02:16:28.549Z,0
2017-02-10T02:17:39.950Z,0
2017-02-10T02:18:51.350Z,0
2017-02-10T02:20:02.753Z,0
2017-02-10T02:21:14.158Z,0
2017-02-10T02:22:25.605Z,0
2017-02-10T02:23:37.206Z,0
2017-02-10T02:24:48.610Z,0
2017-02-10T02:26:00.204Z,0
2017-02-10T02:27:11.607Z,0
2017-02-10T02:28:23.207Z,0
2017-02-10T02:29:34.610Z,0
2017-02-10T02:30:46.008Z,0
2017-02-10T02:31:57.407Z,0
2017-02-10T02:33:08.860Z,0
2017-02-10T02:34:20.261Z,0
2017-02-10T02:35:31.870Z,0
2017-02-10T02:36:43.271Z,0
2017-02-10T02:37:54.668Z,0
2017-02-10T02:39:06.312Z,0
2017-02-10T02:40:17.721Z,0
2017-02-10T02:41:29.331Z,0
2017-02-10T02:42:40.934Z,0
2017-02-10T02:43:52.441Z,0
2017-02-10T02:45:04.045Z,0
2017-02-10T02:46:15.654Z,0
2017-02-10T02:47:27.050Z,0
2017-02-10T02:48:38.654Z,0
2017-02-10T02:49:50.102Z,0
2017-02-10T02:51:01.490Z,0
2017-02-10T02:52:12.887Z,0
2017-02-10T02:53:24.306Z,0
2017-02-10T02:54:35.755Z,0
2017-02-10T02:55:47.146Z,0
2017-02-10T02:56:58.537Z,0
2017-02-10T02:58:09.938Z,0
2017-02-10T02:59:21.372Z,0
2017-02-10T03:00:32.764Z,0
2017-02-10T03:01:44.161Z,0
2017-02-10T03:02:55.764Z,0
2017-02-10T03:04:07.170Z,0
2017-02-10T03:05:18.625Z,0
2017-02-10T03:06:30.233Z,0
2017-02-10T03:07:41.628Z,0
2017-02-10T03:08:53.027Z,0
2017-02-10T03:10:04.429Z,0
2017-02-10T03:11:15.831Z,0
2017-02-10T03:12:27.226Z,0
2017-02-10T03:13:38.631Z,0
2017-02-10T03:14:50.040Z,0
2017-02-10T03:16:01.537Z,0
2017-02-10T03:17:12.955Z,0
2017-02-10T03:18:24.558Z,0
2017-02-10T03:19:35.960Z,0
2017-02-10T03:20:47.359Z,0
2017-02-10T03:21:58.744Z,0
2017-02-10T03:23:10.147Z,0
2017-02-10T03:24:21.544Z,0
2017-02-10T03:25:32.942Z,0
2017-02-10T03:26:44.382Z,0
2017-02-10T03:27:55.789Z,0
2017-02-10T03:29:07.194Z,0
2017-02-10T03:30:18.591Z,0
2017-02-10T03:31:29.995Z,0
2017-02-10T03:32:41.395Z,0
2017-02-10T03:33:52.789Z,0
2017-02-10T03:35:04.425Z,0
2017-02-10T03:36:15.831Z,0
2017-02-10T03:37:27.283Z,0
2017-02-10T03:38:38.886Z,0
2017-02-10T03:39:50.280Z,0
2017-02-10T03:41:01.880Z,0
2017-02-10T03:42:13.296Z,0
2017-02-10T03:43:24.719Z,0
2017-02-10T03:44:36.117Z,0
2017-02-10T03:45:47.509Z,0
2017-02-10T03:46:58.901Z,0
2017-02-10T03:48:10.351Z,0
2017-02-10T03:49:21.754Z,0
2017-02-10T03:50:33.152Z,0
2017-02-10T03:51:44.953Z,0
2017-02-10T03:52:56.360Z,0
2017-02-10T03:54:07.762Z,0
2017-02-10T03:55:19.369Z,0
2017-02-10T03:56:30.970Z,0
2017-02-10T03:57:42.364Z,0
2017-02-10T03:58:53.860Z,0
2017-02-10T04:00:05.255Z,0
2017-02-10T04:01:16.655Z,0
2017-02-10T04:02:28.056Z,0
2017-02-10T04:03:39.455Z,0
2017-02-10T04:04:50.862Z,0
2017-02-10T04:06:02.266Z,0
2017-02-10T04:07:13.668Z,0
2017-02-10T04:08:25.095Z,0
2017-02-10T04:09:36.537Z,0
2017-02-10T04:10:47.932Z,0
2017-02-10T04:11:59.338Z,0
2017-02-10T04:13:10.952Z,0
2017-02-10T04:14:22.347Z,0
2017-02-10T04:15:33.943Z,0
2017-02-10T04:16:45.551Z,0
2017-02-10T04:17:56.956Z,0
2017-02-10T04:19:08.556Z,0
2017-02-10T04:20:20.003Z,0
2017-02-10T04:21:31.398Z,0
2017-02-10T04:22:42.992Z,0
2017-02-10T04:23:54.597Z,0
2017-02-10T04:25:06.202Z,0
2017-02-10T04:26:17.801Z,0
2017-02-10T04:27:29.206Z,0
2017-02-10T04:28:40.611Z,0
2017-02-10T04:29:52.007Z,0
2017-02-10T04:31:03.410Z,0
2017-02-10T04:32:14.810Z,0
2017-02-10T04:33:26.219Z,0
2017-02-10T04:34:37.829Z,0
2017-02-10T04:35:49.235Z,0
2017-02-10T04:37:00.687Z,0
2017-02-10T04:38:12.078Z,0
2017-02-10T04:39:23.472Z,0
2017-02-10T04:40:34.878Z,0
2017-02-10T04:41:46.282Z,0
2017-02-10T04:42:57.676Z,0
2017-02-10T04:44:09.284Z,0
2017-02-10T04:45:20.679Z,0
2017-02-10T04:46:32.285Z,0
2017-02-10T04:47:43.937Z,0
2017-02-10T04:48:55.336Z,0
2017-02-10T04:50:06.730Z,0
2017-02-10T04:51:18.131Z,0
2017-02-10T04:52:29.542Z,0
2017-02-10T04:53:40.942Z,0
2017-02-10T04:54:52.354Z,0
2017-02-10T04:56:03.758Z,0
2017-02-10T04:57:15.566Z,0
2017-02-10T04:58:27.011Z,0
2017-02-10T04:59:38.414Z,0
2017-02-10T05:00:49.813Z,0
2017-02-10T05:02:01.221Z,0
2017-02-10T05:03:12.810Z,0
2017-02-10T05:04:24.215Z,0
2017-02-10T05:05:35.613Z,0
2017-02-10T05:06:47.023Z,0
2017-02-10T05:07:58.432Z,0
2017-02-10T05:09:09.888Z,0
2017-02-10T05:10:21.299Z,0
2017-02-10T05:11:32.706Z,0
2017-02-10T05:12:44.310Z,0
2017-02-10T05:13:55.717Z,0
2017-02-10T05:15:07.574Z,0
2017-02-10T05:16:18.970Z,0
2017-02-10T05:17:30.389Z,0
2017-02-10T05:18:41.985Z,0
2017-02-10T05:19:53.593Z,0
2017-02-10T05:21:05.003Z,0
2017-02-10T05:22:16.408Z,0
2017-02-10T05:23:27.812Z,0
2017-02-10T05:24:39.220Z,0
2017-02-10T05:25:50.709Z,0
2017-02-10T05:27:02.111Z,0
2017-02-10T05:28:13.525Z,0
2017-02-10T05:29:25.129Z,0
2017-02-10T05:30:36.728Z,0
2017-02-10T05:31:48.544Z,0
2017-02-10T05:32:59.943Z,0
2017-02-10T05:34:11.347Z,0
2017-02-10T05:35:22.751Z,0
2017-02-10T05:36:34.205Z,0
2017-02-10T05:37:45.602Z,0
2017-02-10T05:38:57.012Z,0
2017-02-10T05:40:08.412Z,0
2017-02-10T05:41:19.816Z,0
2017-02-10T05:42:31.417Z,0
2017-02-10T05:43:42.821Z,0
2017-02-10T05:44:54.229Z,0
2017-02-10T05:46:05.623Z,0
2017-02-10T05:47:17.120Z,0
2017-02-10T05:48:28.522Z,0
2017-02-10T05:49:39.919Z,0
2017-02-10T05:50:51.322Z,0
2017-02-10T05:52:02.717Z,0
2017-02-10T05:53:14.112Z,0
2017-02-10T05:54:25.513Z,0
2017-02-10T05:55:37.109Z,0
2017-02-10T05:56:48.503Z,0
2017-02-10T05:58:00.003Z,0
2017-02-10T05:59:11.403Z,0
2017-02-10T06:00:23.007Z,0
2017-02-10T06:01:34.409Z,0
2017-02-10T06:02:45.812Z,0
2017-02-10T06:03:57.269Z,0
2017-02-10T06:05:08.669Z,0
2017-02-10T06:06:20.071Z,0
2017-02-10T06:07:31.481Z,0
2017-02-10T06:08:42.882Z,0
2017-02-10T06:09:54.288Z,0
2017-02-10T06:11:05.694Z,0
2017-02-10T06:12:17.091Z,0
2017-02-10T06:13:28.491Z,0
2017-02-10T06:14:39.945Z,0
2017-02-10T06:15:51.341Z,0
2017-02-10T06:17:02.738Z,0
2017-02-10T06:18:14.144Z,0
2017-02-10T06:19:25.532Z,0
2017-02-10T06:20:37.129Z,0
2017-02-10T06:21:48.729Z,0
2017-02-10T06:23:00.334Z,0
2017-02-10T06:24:11.733Z,0
2017-02-10T06:25:23.192Z,0
2017-02-10T06:26:34.591Z,0
2017-02-10T06:27:45.990Z,0
2017-02-10T06:28:57.391Z,0
2017-02-10T06:30:08.797Z,0
2017-02-10T06:31:20.200Z,0
2017-02-10T06:32:31.602Z,0
2017-02-10T06:33:43.030Z,0
2017-02-10T06:34:54.641Z,0
2017-02-10T06:36:06.094Z,0
2017-02-10T06:37:17.485Z,0
2017-02-10T06:38:29.092Z,0
2017-02-10T06:39:40.901Z,0
2017-02-10T06:40:52.305Z,0
2017-02-10T06:42:03.712Z,0
2017-02-10T06:43:15.115Z,0
2017-02-10T06:44:26.518Z,0
2017-02-10T06:45:37.914Z,0
2017-02-10T06:46:49.418Z,0
2017-02-10T06:48:01.023Z,0
2017-02-10T06:49:12.627Z,0
2017-02-10T06:50:24.023Z,0
2017-02-10T06:51:35.631Z,0
2017-02-10T06:52:47.024Z,0
2017-02-10T06:53:58.420Z,0
2017-02-10T06:55:09.816Z,0
2017-02-10T06:56:21.216Z,0
2017-02-10T06:57:32.628Z,0
2017-02-10T06:58:44.034Z,0
2017-02-10T06:59:55.440Z,0
2017-02-10T07:01:06.838Z,0
2017-02-10T07:02:18.443Z,0
2017-02-10T07:03:29.842Z,0
2017-02-10T07:04:41.242Z,0
2017-02-10T07:05:52.644Z,0
2017-02-10T07:07:04.046Z,0
2017-02-10T07:08:15.500Z,0
2017-02-10T07:09:26.904Z,5
2017-02-10T07:10:38.508Z,5
2017-02-10T07:11:49.913Z,5
2017-02-10T07:13:01.316Z,5
2017-02-10T07:14:12.720Z,5
2017-02-10T07:15:24.121Z,5
2017-02-10T07:16:35.733Z,5
2017-02-10T07:17:47.163Z,5
2017-02-10T07:18:59.107Z,5
2017-02-10T07:20:10.513Z,10
2017-02-10T07:21:21.914Z,10
2017-02-10T07:22:33.314Z,10
2017-02-10T07:23:44.715Z,10
2017-02-10T07:24:56.116Z,10
2017-02-10T07:26:07.509Z,15
2017-02-10T07:27:18.916Z,15
2017-02-10T07:28:30.506Z,15
2017-02-10T07:29:42.014Z,20
2017-02-10T07:30:53.610Z,20
2017-02-10T07:32:05.019Z,20
2017-02-10T07:33:16.423Z,20
2017-02-10T07:34:28.017Z,20
2017-02-10T07:35:39.424Z,20
2017-02-10T07:36:50.825Z,20
2017-02-10T07:38:02.226Z,20
2017-02-10T07:39:13.628Z,20
2017-02-10T07:40:25.275Z,25
2017-02-10T07:41:37.080Z,25
2017-02-10T07:42:48.481Z,25
2017-02-10T07:44:00.087Z,25
2017-02-10T07:45:11.496Z,25
2017-02-10T07:46:22.894Z,25
2017-02-10T07:47:34.289Z,25
2017-02-10T07:48:45.886Z,30
2017-02-10T07:49:57.283Z,30
2017-02-10T07:51:08.687Z,30
2017-02-10T07:52:20.280Z,30
2017-02-10T07:53:31.669Z,30
2017-02-10T07:54:43.074Z,35
2017-02-10T07:55:54.469Z,35
2017-02-10T07:57:05.916Z,40
2017-02-10T07:58:17.326Z,40
2017-02-10T07:59:28.928Z,40
2017-02-10T08:00:40.334Z,40
2017-02-10T08:01:51.946Z,40
2017-02-10T08:03:03.348Z,40
2017-02-10T08:04:14.794Z,40
2017-02-10T08:05:26.194Z,40
2017-02-10T08:06:37.604Z,40
2017-02-10T08:07:49.059Z,40
2017-02-10T08:09:00.492Z,45
2017-02-10T08:10:11.896Z,50
2017-02-10T08:11:23.296Z,50
2017-02-10T08:12:34.710Z,50
2017-02-10T08:13:46.111Z,50
2017-02-10T08:14:58.119Z,50
2017-02-10T08:16:09.717Z,50
2017-02-10T08:17:21.122Z,50
2017-02-10T08:18:32.582Z,50
2017-02-10T08:19:44.180Z,50
2017-02-10T08:20:55.588Z,50
2017-02-10T08:22:06.985Z,50
2017-02-10T08:23:18.384Z,50
2017-02-10T08:24:29.779Z,55
2017-02-10T08:25:41.183Z,60
2017-02-10T08:26:52.591Z,60
2017-02-10T08:28:04.000Z,60
2017-02-10T08:29:15.457Z,60
2017-02-10T08:30:26.860Z,65
2017-02-10T08:31:38.267Z,60
2017-02-10T08:32:49.684Z,60
2017-02-10T08:34:01.290Z,60
2017-02-10T08:35:12.684Z,60
2017-02-10T08:36:24.086Z,60
2017-02-10T08:37:35.490Z,60
2017-02-10T08:38:46.889Z,60
2017-02-10T08:39:58.350Z,55
2017-02-10T08:41:09.755Z,60
2017-02-10T08:42:21.156Z,60
2017-02-10T08:43:32.561Z,60
2017-02-10T08:44:43.970Z,60
2017-02-10T08:45:55.378Z,65
2017-02-10T08:47:06.778Z,60
2017-02-10T08:48:18.179Z,60
2017-02-10T08:49:29.586Z,55
2017-02-10T08:50:41.290Z,55
2017-02-10T08:51:53.098Z,55
2017-02-10T08:53:04.497Z,55
2017-02-10T08:54:15.938Z,55
2017-02-10T08:55:27.547Z,50
2017-02-10T08:56:39.004Z,45
2017-02-10T08:57:50.397Z,45
2017-02-10T08:59:01.804Z,55
2017-02-10T09:00:13.214Z,60
2017-02-10T09:01:25.068Z,70
2017-02-10T09:02:36.467Z,80
2017-02-10T09:03:47.867Z,75
2017-02-10T09:04:59.271Z,70
2017-02-10T09:06:10.668Z,60
2017-02-10T09:07:22.096Z,60
2017-02-10T09:08:33.702Z,65
2017-02-10T09:09:45.334Z,65
2017-02-10T09:10:56.738Z,65
2017-02-10T09:12:08.185Z,65
2017-02-10T09:13:19.592Z,70
2017-02-10T09:14:31.000Z,75
2017-02-10T09:15:42.799Z,80
2017-02-10T09:16:54.398Z,80
2017-02-10T09:18:05.840Z,75
2017-02-10T09:19:17.439Z,65
2017-02-10T09:20:28.840Z,65
2017-02-10T09:21:40.242Z,70
2017-02-10T09:22:51.647Z,70
2017-02-10T09:24:03.265Z,65
2017-02-10T09:25:14.665Z,65
2017-02-10T09:26:26.071Z,65
2017-02-10T09:27:37.469Z,65
2017-02-10T09:28:48.975Z,60
2017-02-10T09:30:00.386Z,60
2017-02-10T09:31:11.993Z,65
2017-02-10T09:32:23.394Z,70
2017-02-10T09:33:34.789Z,75
2017-02-10T09:34:46.187Z,80
2017-02-10T09:35:57.592Z,85
2017-02-10T09:37:09.001Z,85
2017-02-10T09:38:20.401Z,85
2017-02-10T09:39:31.850Z,80
2017-02-10T09:40:43.252Z,80
2017-02-10T09:41:54.664Z,85
2017-02-10T09:43:06.080Z,95
2017-02-10T09:44:17.481Z,100
2017-02-10T09:45:28.882Z,95
2017-02-10T09:46:40.310Z,90
2017-02-10T09:47:51.920Z,80
2017-02-10T09:49:03.316Z,80
2017-02-10T09:50:14.758Z,80
2017-02-10T09:51:26.161Z,85
2017-02-10T09:52:37.557Z,85
2017-02-10T09:53:49.162Z,85
2017-02-10T09:55:00.568Z,85
2017-02-10T09:56:11.964Z,85
2017-02-10T09:57:23.364Z,85
2017-02-10T09:58:34.776Z,95
2017-02-10T09:59:46.175Z,95
2017-02-10T10:00:57.628Z,95
2017-02-10T10:02:09.231Z,90
2017-02-10T10:03:20.644Z,90
2017-02-10T10:04:32.248Z,90
2017-02-10T10:05:43.645Z,95
2017-02-10T10:06:55.047Z,100
2017-02-10T10:08:06.642Z,100
2017-02-10T10:09:18.047Z,95
2017-02-10T10:10:29.653Z,95
2017-02-10T10:11:41.058Z,90
2017-02-10T10:12:52.454Z,90
2017-02-10T10:14:03.852Z,90
2017-02-10T10:15:15.251Z,90
2017-02-10T10:16:26.645Z,95
2017-02-10T10:17:38.152Z,95
2017-02-10T10:18:49.752Z,90
2017-02-10T10:20:01.157Z,90
2017-02-10T10:21:12.560Z,90
2017-02-10T10:22:23.963Z,85
2017-02-10T10:23:35.564Z,85
2017-02-10T10:24:46.975Z,90
2017-02-10T10:25:58.392Z,85
2017-02-10T10:27:09.799Z,80
2017-02-10T10:28:21.299Z,80
2017-02-10T10:29:32.700Z,75
2017-02-10T10:30:44.123Z,75
2017-02-10T10:31:55.531Z,70
2017-02-10T10:33:06.926Z,65
2017-02-10T10:34:18.539Z,70
2017-02-10T10:35:29.936Z,70
2017-02-10T10:36:41.330Z,70
2017-02-10T10:37:52.939Z,75
2017-02-10T10:39:04.399Z,75
2017-02-10T10:40:15.807Z,75
2017-02-10T10:41:27.619Z,75
2017-02-10T10:42:39.217Z,70
2017-02-10T10:43:50.617Z,70
2017-02-10T10:45:02.029Z,70
2017-02-10T10:46:13.433Z,75
2017-02-10T10:47:24.837Z,80
2017-02-10T10:48:36.238Z,85
2017-02-10T10:49:47.690Z,85
2017-02-10T10:50:59.091Z,85
2017-02-10T10:52:10.490Z,85
2017-02-10T10:53:21.895Z,85
2017-02-10T10:54:33.291Z,85
2017-02-10T10:55:44.694Z,85
2017-02-10T10:56:56.091Z,90
2017-02-10T10:58:07.696Z,90
2017-02-10T10:59:19.308Z,90
2017-02-10T11:00:30.703Z,90
2017-02-10T11:01:42.106Z,85
2017-02-10T11:02:53.516Z,85
2017-02-10T11:04:04.921Z,85
2017-02-10T11:05:16.325Z,85
2017-02-10T11:06:27.772Z,85
2017-02-10T11:07:39.176Z,85
2017-02-10T11:08:50.585Z,85
2017-02-10T11:10:01.990Z,85
2017-02-10T11:11:13.395Z,85
2017-02-10T11:12:24.793Z,85
2017-02-10T11:13:36.192Z,85
2017-02-10T11:14:47.601Z,85
2017-02-10T11:15:59.010Z,85
2017-02-10T11:17:10.474Z,85
2017-02-10T11:18:21.872Z,85
2017-02-10T11:19:33.276Z,85
2017-02-10T11:20:44.676Z,85
2017-02-10T11:21:56.279Z,85
2017-02-10T11:23:07.734Z,85
2017-02-10T11:24:19.132Z,85
2017-02-10T11:25:30.532Z,95
2017-02-10T11:26:41.950Z,95
2017-02-10T11:27:53.403Z,100
2017-02-10T11:29:04.809Z,100
2017-02-10T11:30:16.217Z,100
2017-02-10T11:31:27.619Z,105
2017-02-10T11:32:39.016Z,105
2017-02-10T11:33:50.419Z,110
2017-02-10T11:35:01.829Z,110
2017-02-10T11:36:13.233Z,105
2017-02-10T11:37:24.635Z,105
2017-02-10T11:38:36.082Z,105
2017-02-10T11:39:47.488Z,105
2017-02-10T11:40:58.894Z,100
2017-02-10T11:42:10.301Z,100
2017-02-10T11:43:21.735Z,100
2017-02-10T11:44:33.133Z,95
2017-02-10T11:45:44.534Z,95
2017-02-10T11:46:55.934Z,100
2017-02-10T11:48:07.334Z,105
2017-02-10T11:49:18.790Z,105
2017-02-10T11:50:30.195Z,105
2017-02-10T11:51:41.605Z,100
2017-02-10T11:52:53.001Z,95
2017-02-10T11:54:04.598Z,90
2017-02-10T11:55:16.050Z,90
2017-02-10T11:56:27.449Z,90
2017-02-10T11:57:38.858Z,85
2017-02-10T11:58:50.262Z,85
2017-02-10T12:00:01.712Z,85
2017-02-10T12:01:13.117Z,85
2017-02-10T12:02:24.526Z,90
2017-02-10T12:03:35.929Z,85
2017-02-10T12:04:47.331Z,85
2017-02-10T12:05:58.790Z,85
2017-02-10T12:07:10.194Z,85
2017-02-10T12:08:21.591Z,80
2017-02-10T12:09:33.000Z,80
2017-02-10T12:10:44.463Z,80
2017-02-10T12:11:56.061Z,80
2017-02-10T12:13:07.461Z,80
2017-02-10T12:14:19.069Z,85
2017-02-10T12:15:30.463Z,85
2017-02-10T12:16:41.865Z,85
2017-02-10T12:17:53.272Z,85
2017-02-10T12:19:04.678Z,85
2017-02-10T12:20:16.084Z,80
2017-02-10T12:21:27.535Z,80
2017-02-10T12:22:38.944Z,80
2017-02-10T12:23:50.363Z,80
2017-02-10T12:25:01.768Z,80
2017-02-10T12:26:13.383Z,80
2017-02-10T12:27:24.781Z,80
2017-02-10T12:28:36.183Z,80
2017-02-10T12:29:47.586Z,80
2017-02-10T12:30:58.994Z,80
2017-02-10T12:32:10.405Z,85
2017-02-10T12:33:21.802Z,85
2017-02-10T12:34:33.202Z,85
2017-02-10T12:35:44.615Z,85
2017-02-10T12:36:56.073Z,85
2017-02-10T12:38:07.477Z,85
2017-02-10T12:39:19.276Z,85
2017-02-10T12:40:30.882Z,85
2017-02-10T12:41:42.288Z,85
2017-02-10T12:42:53.892Z,85
2017-02-10T12:44:05.300Z,85
2017-02-10T12:45:16.709Z,80
2017-02-10T12:46:28.115Z,80
2017-02-10T12:47:39.569Z,75
2017-02-10T12:48:50.970Z,75
2017-02-10T12:50:02.378Z,75
2017-02-10T12:51:13.986Z,75
2017-02-10T12:52:25.384Z,75
2017-02-10T12:53:36.789Z,75
2017-02-10T12:54:48.202Z,75
2017-02-10T12:55:59.811Z,80
2017-02-10T12:57:11.412Z,80
2017-02-10T12:58:22.910Z,80
2017-02-10T12:59:34.511Z,80
2017-02-10T13:00:45.906Z,80
2017-02-10T13:01:57.320Z,80
2017-02-10T13:03:08.726Z,80
2017-02-10T13:04:20.163Z,75
2017-02-10T13:05:31.569Z,80
2017-02-10T13:06:42.964Z,80
2017-02-10T13:07:54.561Z,85
2017-02-10T13:09:06.024Z,85
2017-02-10T13:10:17.423Z,85
2017-02-10T13:11:28.833Z,85
2017-02-10T13:12:40.237Z,85
2017-02-10T13:13:51.632Z,85
2017-02-10T13:15:03.039Z,85
2017-02-10T13:16:14.446Z,85
2017-02-10T13:17:25.844Z,85
2017-02-10T13:18:37.264Z,85
2017-02-10T13:19:48.872Z,85
2017-02-10T13:21:00.275Z,85
2017-02-10T13:22:11.676Z,85
2017-02-10T13:23:23.478Z,85
2017-02-10T13:24:34.923Z,80
2017-02-10T13:25:46.322Z,80
2017-02-10T13:26:57.730Z,80
2017-02-10T13:28:09.136Z,80
2017-02-10T13:29:20.538Z,80
2017-02-10T13:30:32.203Z,80
2017-02-10T13:31:43.618Z,80
2017-02-10T13:32:55.028Z,80
2017-02-10T13:34:06.438Z,75
2017-02-10T13:35:17.849Z,75
2017-02-10T13:36:29.248Z,75
2017-02-10T13:37:41.060Z,75
2017-02-10T13:38:52.468Z,75
2017-02-10T13:40:03.907Z,70
2017-02-10T13:41:15.354Z,70
2017-02-10T13:42:26.767Z,70
2017-02-10T13:43:38.572Z,70
2017-02-10T13:44:49.979Z,70
2017-02-10T13:46:01.379Z,65
2017-02-10T13:47:12.786Z,65
2017-02-10T13:48:24.187Z,65
2017-02-10T13:49:35.589Z,65
2017-02-10T13:50:47.200Z,65
2017-02-10T13:51:58.658Z,65
2017-02-10T13:53:10.057Z,65
2017-02-10T13:54:21.472Z,65
2017-02-10T13:55:32.891Z,65
2017-02-10T13:56:44.297Z,60
2017-02-10T13:57:55.710Z,60
2017-02-10T13:59:07.325Z,60
2017-02-10T14:00:18.729Z,60
2017-02-10T14:01:30.134Z,60
2017-02-10T14:02:41.583Z,60
2017-02-10T14:03:52.984Z,60
2017-02-10T14:05:04.398Z,60
2017-02-10T14:06:16.002Z,60
2017-02-10T14:07:27.418Z,55
2017-02-10T14:08:38.820Z,55
2017-02-10T14:09:50.231Z,55
2017-02-10T14:11:01.837Z,55
2017-02-10T14:12:13.243Z,55
2017-02-10T14:13:24.712Z,55
2017-02-10T14:14:36.128Z,55
2017-02-10T14:15:47.529Z,55
2017-02-10T14:16:58.936Z,55
2017-02-10T14:18:10.339Z,55
2017-02-10T14:19:21.787Z,55
2017-02-10T14:20:33.187Z,55
2017-02-10T14:21:44.599Z,55
2017-02-10T14:22:56.001Z,55
2017-02-10T14:24:07.455Z,55
2017-02-10T14:25:18.871Z,55
2017-02-10T14:26:30.268Z,50
2017-02-10T14:27:41.701Z,50
2017-02-10T14:28:53.321Z,50
2017-02-10T14:30:04.786Z,45
2017-02-10T14:31:16.393Z,45
2017-02-10T14:32:27.798Z,45
2017-02-10T14:33:39.211Z,45
2017-02-10T14:34:50.719Z,45
2017-02-10T14:36:02.121Z,45
2017-02-10T14:37:13.532Z,45
2017-02-10T14:38:24.935Z,45
2017-02-10T14:39:36.541Z,45
2017-02-10T14:40:48.288Z,45
2017-02-10T14:41:59.688Z,45
2017-02-10T14:43:11.290Z,45
2017-02-10T14:44:23.298Z,45
2017-02-10T14:45:34.710Z,40
2017-02-10T14:46:46.117Z,40
2017-02-10T14:47:57.525Z,40
2017-02-10T14:49:08.937Z,40
2017-02-10T14:50:20.346Z,40
2017-02-10T14:51:31.806Z,40
2017-02-10T14:52:43.218Z,35
2017-02-10T14:53:54.631Z,35
2017-02-10T14:55:06.035Z,35
2017-02-10T14:56:17.445Z,35
2017-02-10T14:57:29.046Z,35
2017-02-10T14:58:40.449Z,35
2017-02-10T14:59:51.847Z,35
2017-02-10T15:01:03.244Z,35
2017-02-10T15:02:14.995Z,35
2017-02-10T15:03:26.400Z,35
2017-02-10T15:04:37.813Z,30
2017-02-10T15:05:49.217Z,30
2017-02-10T15:07:00.618Z,30
2017-02-10T15:08:12.071Z,30
2017-02-10T15:09:23.472Z,30
2017-02-10T15:10:34.881Z,30
2017-02-10T15:11:46.493Z,30
2017-02-10T15:12:58.247Z,30
2017-02-10T15:14:09.867Z,25
2017-02-10T15:15:21.283Z,25
2017-02-10T15:16:32.687Z,20
2017-02-10T15:17:44.079Z,20
2017-02-10T15:18:55.686Z,20
2017-02-10T15:20:07.093Z,20
2017-02-10T15:21:18.706Z,20
2017-02-10T15:22:30.113Z,15
2017-02-10T15:23:41.594Z,15
2017-02-10T15:24:52.989Z,15
2017-02-10T15:26:04.392Z,15
2017-02-10T15:27:15.795Z,15
2017-02-10T15:28:27.195Z,15
2017-02-10T15:29:39.003Z,15
2017-02-10T15:30:50.608Z,15
2017-02-10T15:32:02.018Z,15
2017-02-10T15:33:13.428Z,15
2017-02-10T15:34:24.934Z,15
2017-02-10T15:35:36.345Z,15
2017-02-10T15:36:47.748Z,15
2017-02-10T15:37:59.140Z,10
2017-02-10T15:39:10.747Z,10
2017-02-10T15:40:22.204Z,10
2017-02-10T15:41:33.809Z,10
2017-02-10T15:42:45.422Z,10
2017-02-10T15:43:56.831Z,10
2017-02-10T15:45:08.234Z,10
2017-02-10T15:46:19.639Z,10
2017-02-10T15:47:31.040Z,10
2017-02-10T15:48:42.648Z,5
2017-02-10T15:49:54.052Z,5
2017-02-10T15:51:05.505Z,5
2017-02-10T15:52:16.899Z,5
2017-02-10T15:53:28.302Z,5
2017-02-10T15:54:39.705Z,5
2017-02-10T15:55:51.112Z,5
2017-02-10T15:57:02.519Z,5
2017-02-10T15:58:13.943Z,5
2017-02-10T15:59:25.378Z,5
2017-02-10T16:00:36.774Z,5
2017-02-10T16:01:48.432Z,5
2017-02-10T16:02:59.836Z,5
2017-02-10T16:04:11.239Z,5
2017-02-10T16:05:22.640Z,5
2017-02-10T16:06:34.046Z,5
2017-02-10T16:07:45.448Z,5
2017-02-10T16:08:57.046Z,0
2017-02-10T16:10:08.656Z,0
2017-02-10T16:11:20.056Z,0
2017-02-10T16:12:31.560Z,0
2017-02-10T16:13:42.964Z,0
2017-02-10T16:14:54.569Z,0
2017-02-10T16:16:05.977Z,0
2017-02-10T16:17:17.584Z,0
2017-02-10T16:18:28.989Z,0
2017-02-10T16:19:40.402Z,0
2017-02-10T16:20:51.805Z,0
2017-02-10T16:22:03.212Z,0
2017-02-10T16:23:14.878Z,0
2017-02-10T16:24:26.284Z,0
2017-02-10T16:25:37.699Z,0
2017-02-10T16:26:49.099Z,0
2017-02-10T16:28:00.506Z,0
2017-02-10T16:29:11.965Z,0
2017-02-10T16:30:23.366Z,0
2017-02-10T16:31:34.774Z,0
2017-02-10T16:32:46.176Z,0
2017-02-10T16:33:57.582Z,0
2017-02-10T16:35:09.180Z,0
2017-02-10T16:36:20.580Z,0
2017-02-10T16:37:31.978Z,0
2017-02-10T16:38:43.377Z,0
2017-02-10T16:39:54.783Z,0
2017-02-10T16:41:06.186Z,0
2017-02-10T16:42:17.790Z,0
2017-02-10T16:43:29.187Z,0
2017-02-10T16:44:40.646Z,0
2017-02-10T16:45:52.254Z,0
2017-02-10T16:47:03.663Z,0
2017-02-10T16:48:15.066Z,0
2017-02-10T16:49:26.472Z,0
2017-02-10T16:50:37.918Z,0
2017-02-10T16:51:49.351Z,0
2017-02-10T16:53:00.965Z,0
2017-02-10T16:54:12.365Z,0
2017-02-10T16:55:23.887Z,0
2017-02-10T16:56:35.298Z,0
2017-02-10T16:57:46.901Z,0
2017-02-10T16:58:58.305Z,0
2017-02-10T17:00:09.706Z,0
2017-02-10T17:01:21.112Z,0
2017-02-10T17:02:32.709Z,0
2017-02-10T17:03:44.115Z,0
2017-02-10T17:04:55.520Z,0
2017-02-10T17:06:06.915Z,0
2017-02-10T17:07:18.321Z,0
2017-02-10T17:08:29.734Z,0
2017-02-10T17:09:41.144Z,0
2017-02-10T17:10:52.605Z,0
2017-02-10T17:12:04.015Z,0
2017-02-10T17:13:15.621Z,0
2017-02-10T17:14:27.221Z,0
2017-02-10T17:15:38.824Z,0
2017-02-10T17:16:50.281Z,0